createdAt,value
2018-10-18T00:02:06.748Z,98820.23
2018-10-18T00:07:09.074Z,98818.58
2018-10-18T00:12:11.475Z,98814.48
2018-10-18T00:17:19.560Z,98813.98
2018-10-18T00:22:21.924Z,98812.76
2018-10-18T00:27:24.226Z,98811.76
2018-10-18T00:32:26.516Z,98813.17
2018-10-18T00:37:29.108Z,98812.47
2018-10-18T00:42:31.439Z,98810.20
2018-10-18T00:47:33.815Z,98810.63
2018-10-18T00:52:36.136Z,98805.70
2018-10-18T00:57:39.070Z,98808.66
2018-10-18T01:02:41.397Z,98807.42
2018-10-18T01:07:43.759Z,98799.24
2018-10-18T01:12:46.177Z,98799.87
2018-10-18T01:17:48.443Z,98802.61
2018-10-18T01:22:50.813Z,98805.73
2018-10-18T01:27:53.163Z,98803.14
2018-10-18T01:32:55.456Z,98800.78
2018-10-18T01:37:57.956Z,98810.39
2018-10-18T01:43:00.380Z,98810.89
2018-10-18T01:48:02.737Z,98809.08
2018-10-18T01:53:05.531Z,98801.34
2018-10-18T01:58:07.934Z,98800.39
2018-10-18T02:03:10.219Z,98806.18
2018-10-18T02:08:12.691Z,98804.98
2018-10-18T02:13:14.969Z,98807.83
2018-10-18T02:18:17.372Z,98801.67
2018-10-18T02:23:19.757Z,98805.47
2018-10-18T02:28:22.099Z,98799.43
2018-10-18T02:33:24.388Z,98802.78
2018-10-18T02:38:26.981Z,98801.66
2018-10-18T02:43:29.282Z,98800.62
2018-10-18T02:48:31.596Z,98793.89
2018-10-18T02:53:34.094Z,98799.51
2018-10-18T02:58:36.481Z,98798.02
2018-10-18T03:03:38.803Z,98804.23
2018-10-18T03:08:41.188Z,98805.38
2018-10-18T03:13:43.500Z,98810.13
2018-10-18T03:18:45.841Z,98818.06
2018-10-18T03:23:48.233Z,98817.53
2018-10-18T03:28:50.662Z,98811.94
2018-10-18T03:33:52.927Z,98822.39
2018-10-18T03:38:55.501Z,98821.47
2018-10-18T03:43:57.873Z,98820.65
2018-10-18T03:49:01.869Z,98819.89
2018-10-18T03:54:06.481Z,98821.64
2018-10-18T03:59:10.625Z,98820.65
2018-10-18T04:04:14.596Z,98826.56
2018-10-18T04:09:18.677Z,98829.91
2018-10-18T04:14:22.652Z,98825.94
2018-10-18T04:19:26.648Z,98837.02
2018-10-18T04:24:30.736Z,98834.08
2018-10-18T04:29:34.931Z,98838.17
2018-10-18T04:34:39.395Z,98840.13
2018-10-18T04:39:43.521Z,98848.28
2018-10-18T04:44:47.509Z,98844.81
2018-10-18T04:49:51.562Z,98847.79
2018-10-18T04:54:55.564Z,98855.03
2018-10-18T05:00:00.028Z,98849.61
2018-10-18T05:05:15.278Z,98853.38
2018-10-18T05:10:19.289Z,98858.99
2018-10-18T05:15:23.334Z,98860.81
2018-10-18T05:20:27.409Z,98855.03
2018-10-18T05:25:32.281Z,98862.00
2018-10-18T05:30:36.259Z,98867.63
2018-10-18T05:35:40.229Z,98875.86
2018-10-18T05:40:44.403Z,98883.92
2018-10-18T05:45:48.373Z,98893.77
2018-10-18T05:50:52.340Z,98901.83
2018-10-18T05:55:56.297Z,98908.55
2018-10-18T06:01:00.385Z,98917.52
2018-10-18T06:06:04.488Z,98916.67
2018-10-18T06:11:22.921Z,98929.06
2018-10-18T06:16:28.005Z,98934.02
2018-10-18T06:21:31.958Z,98937.34
2018-10-18T06:26:36.612Z,98947.86
2018-10-18T06:31:40.877Z,98947.37
2018-10-18T06:36:44.866Z,98948.11
2018-10-18T06:41:48.857Z,98943.84
2018-10-18T06:46:52.953Z,98949.39
2018-10-18T06:51:56.897Z,98943.59
2018-10-18T06:57:00.873Z,98949.86
2018-10-18T07:02:05.010Z,98962.44
2018-10-18T07:07:09.006Z,98957.22
2018-10-18T07:12:13.155Z,98964.72
2018-10-18T07:17:17.069Z,98965.52
2018-10-18T07:22:21.198Z,98965.91
2018-10-18T07:27:25.151Z,98974.28
2018-10-18T07:32:29.133Z,98975.41
2018-10-18T07:37:33.095Z,98981.26
2018-10-18T07:42:37.070Z,98981.95
2018-10-18T07:47:41.310Z,98993.53
2018-10-18T07:52:45.259Z,98990.94
2018-10-18T07:57:49.231Z,98987.02
2018-10-18T08:02:53.188Z,98991.31
2018-10-18T08:07:57.844Z,98992.38
2018-10-18T08:13:01.865Z,98997.64
2018-10-18T08:18:06.121Z,98991.77
2018-10-18T08:23:10.249Z,98987.45
2018-10-18T08:28:14.190Z,98992.02
2018-10-18T08:33:18.183Z,98991.80
2018-10-18T08:38:22.975Z,98993.48
2018-10-18T08:43:26.956Z,98991.05
2018-10-18T08:48:31.788Z,98986.25
2018-10-18T08:53:35.777Z,98984.80
2018-10-18T08:58:39.763Z,98990.39
2018-10-18T09:03:43.755Z,98986.94
2018-10-18T09:08:47.729Z,98990.75
2018-10-18T09:13:51.724Z,98985.34
2018-10-18T09:18:55.721Z,98985.20
2018-10-18T09:23:59.748Z,98983.85
2018-10-18T09:29:03.809Z,98985.42
2018-10-18T09:34:07.781Z,98985.52
2018-10-18T09:39:11.771Z,98984.69
2018-10-18T09:44:15.962Z,98986.08
2018-10-18T09:49:19.858Z,98979.22
2018-10-18T09:54:23.816Z,98984.00
2018-10-18T09:59:28.235Z,98969.80
2018-10-18T10:04:32.205Z,98980.37
2018-10-18T10:09:36.395Z,98980.09
2018-10-18T10:14:40.568Z,98972.61
2018-10-18T10:19:44.828Z,98974.97
2018-10-18T10:24:48.908Z,98976.31
2018-10-18T10:29:52.940Z,98972.80
2018-10-18T10:34:57.102Z,98972.67
2018-10-18T10:40:01.166Z,98977.55
2018-10-18T10:45:06.142Z,98960.16
2018-10-18T10:50:10.654Z,98962.16
2018-10-18T10:55:14.721Z,98957.94
2018-10-18T11:01:13.811Z,98967.66
2018-10-18T11:06:17.996Z,98957.09
2018-10-18T11:11:22.503Z,98957.27
2018-10-18T11:16:26.492Z,98958.44
2018-10-18T11:21:30.514Z,98966.47
2018-10-18T11:26:34.572Z,98971.73
2018-10-18T11:31:38.542Z,98979.32
2018-10-18T11:36:42.510Z,98979.08
2018-10-18T11:41:46.490Z,98980.78
2018-10-18T11:46:50.495Z,98995.46
2018-10-18T11:51:54.563Z,98987.65
2018-10-18T11:56:58.476Z,98985.05
2018-10-18T12:02:02.478Z,98993.56
2018-10-18T12:07:06.459Z,98978.44
2018-10-18T12:12:10.437Z,98979.70
2018-10-18T12:17:14.522Z,98987.72
2018-10-18T12:22:18.467Z,98995.06
2018-10-18T12:27:22.456Z,98992.77
2018-10-18T12:32:27.025Z,98989.42
2018-10-18T12:37:30.994Z,98993.48
2018-10-18T12:42:36.023Z,98996.25
2018-10-18T12:47:40.102Z,99001.36
2018-10-18T12:52:44.085Z,98996.25
2018-10-18T12:57:48.123Z,99002.24
2018-10-18T13:02:52.099Z,99000.39
2018-10-18T13:07:56.108Z,98992.09
2018-10-18T13:13:00.178Z,98986.89
2018-10-18T13:18:04.381Z,98995.92
2018-10-18T13:23:08.699Z,98985.02
2018-10-18T13:28:12.675Z,98993.18
2018-10-18T13:33:16.652Z,98993.09
2018-10-18T13:38:20.625Z,98990.73
2018-10-18T13:43:24.634Z,98980.37
2018-10-18T13:48:28.597Z,98986.73
2018-10-18T13:53:36.545Z,98983.86
2018-10-18T13:58:41.120Z,98990.61
2018-10-18T14:03:45.090Z,98992.08
2018-10-18T14:08:49.067Z,98997.64
2018-10-18T14:13:53.152Z,99005.51
2018-10-18T14:18:57.105Z,99000.70
2018-10-18T14:24:01.371Z,99004.53
2018-10-18T14:29:05.433Z,99009.29
2018-10-18T14:34:09.957Z,99016.97
2018-10-18T14:39:14.967Z,99017.11
2018-10-18T14:44:19.272Z,99013.94
2018-10-18T14:49:24.308Z,99013.66
2018-10-18T14:54:28.307Z,99022.22
2018-10-18T14:59:32.340Z,99028.80
2018-10-18T15:04:36.827Z,99029.36
2018-10-18T15:09:40.849Z,99030.59
2018-10-18T15:14:44.965Z,99032.80
2018-10-18T15:19:49.254Z,99030.59
2018-10-18T15:24:53.305Z,99027.45
2018-10-18T15:29:57.277Z,99027.72
2018-10-18T15:35:01.324Z,99025.50
2018-10-18T15:40:05.840Z,99032.30
2018-10-18T15:45:10.525Z,99032.45
2018-10-18T15:50:14.589Z,99037.22
2018-10-18T15:55:18.587Z,99036.23
2018-10-18T16:00:22.736Z,99035.63
2018-10-18T16:05:26.877Z,99041.93
2018-10-18T16:10:31.066Z,99046.55
2018-10-18T16:15:35.274Z,99049.66
2018-10-18T16:20:39.836Z,99059.09
2018-10-18T16:25:44.092Z,99051.95
2018-10-18T16:30:48.378Z,99056.45
2018-10-18T16:35:52.572Z,99059.83
2018-10-18T16:40:56.602Z,99077.73
2018-10-18T16:46:00.676Z,99078.75
2018-10-18T16:51:04.956Z,99077.42
2018-10-18T16:56:08.990Z,99082.55
2018-10-18T17:01:12.996Z,99084.61
2018-10-18T17:06:16.986Z,99092.28
2018-10-18T17:11:21.082Z,99099.25
2018-10-18T17:16:25.179Z,99101.91
2018-10-18T17:21:29.307Z,99105.36
2018-10-18T17:26:33.529Z,99112.06
2018-10-18T17:31:38.188Z,99106.52
2018-10-18T17:36:42.226Z,99108.67
2018-10-18T17:41:47.484Z,99107.95
2018-10-18T17:46:51.900Z,99117.56
2018-10-18T17:51:55.993Z,99121.04
2018-10-18T17:57:00.908Z,99112.34
2018-10-18T18:02:05.105Z,99119.49
2018-10-18T18:07:09.771Z,99119.09
2018-10-18T18:12:13.800Z,99120.10
2018-10-18T18:17:17.789Z,99129.52
2018-10-18T18:22:21.871Z,99129.64
2018-10-18T18:27:25.954Z,99129.53
2018-10-18T18:32:29.991Z,99139.67
2018-10-18T18:37:34.108Z,99144.78
2018-10-18T18:42:38.662Z,99146.22
2018-10-18T18:47:42.789Z,99155.86
2018-10-18T18:52:46.824Z,99162.41
2018-10-18T18:57:50.828Z,99168.66
2018-10-18T19:02:54.856Z,99171.61
2018-10-18T19:07:58.837Z,99177.87
2018-10-18T19:13:02.962Z,99176.64
2018-10-18T19:18:07.068Z,99182.37
2018-10-18T19:23:11.304Z,99182.37
2018-10-18T19:28:15.659Z,99192.80
2018-10-18T19:33:19.774Z,99187.91
2018-10-18T19:38:23.786Z,99189.34
2018-10-18T19:43:27.817Z,99194.84
2018-10-18T19:48:32.083Z,99194.66
2018-10-18T19:53:36.061Z,99202.22
2018-10-18T19:58:40.150Z,99203.77
2018-10-18T20:03:44.340Z,99202.94
2018-10-18T20:08:48.666Z,99210.02
2018-10-18T20:13:52.707Z,99210.13
2018-10-18T20:18:56.669Z,99216.34
2018-10-18T20:24:00.765Z,99209.48
2018-10-18T20:29:04.881Z,99217.78
2018-10-18T20:34:08.877Z,99220.55
2018-10-18T20:39:12.949Z,99219.01
2018-10-18T20:44:16.872Z,99211.53
2018-10-18T20:49:20.849Z,99218.90
2018-10-18T20:54:24.910Z,99220.66
2018-10-18T20:59:29.927Z,99219.62
2018-10-18T21:04:33.974Z,99222.39
2018-10-18T21:09:37.951Z,99222.81
2018-10-18T21:14:41.935Z,99219.11
2018-10-18T21:19:45.972Z,99221.48
2018-10-18T21:24:49.977Z,99222.70
2018-10-18T21:29:53.986Z,99225.58
2018-10-18T21:34:58.088Z,99228.02
2018-10-18T21:40:02.160Z,99226.91
2018-10-18T21:45:06.304Z,99221.80
2018-10-18T21:50:10.255Z,99217.09
2018-10-18T21:55:14.235Z,99218.09
2018-10-18T22:00:18.417Z,99216.16
2018-10-18T22:05:22.385Z,99215.86
2018-10-18T22:10:26.457Z,99210.30
2018-10-18T22:15:30.469Z,99207.63
2018-10-18T22:20:34.463Z,99200.87
2018-10-18T22:25:38.520Z,99207.23
2018-10-18T22:30:42.529Z,99210.38
2018-10-18T22:35:46.569Z,99213.88
2018-10-18T22:40:50.631Z,99219.52
2018-10-18T22:46:00.047Z,99219.19
2018-10-18T22:51:04.114Z,99206.61
2018-10-18T22:56:08.053Z,99204.38
2018-10-18T23:01:12.184Z,99201.61
2018-10-18T23:06:16.150Z,99205.80
2018-10-18T23:11:20.107Z,99208.97
2018-10-18T23:16:24.083Z,99211.72
2018-10-18T23:21:28.127Z,99221.45
2018-10-18T23:26:32.188Z,99212.24
2018-10-18T23:31:36.166Z,99210.80
2018-10-18T23:36:40.151Z,99204.55
2018-10-18T23:41:44.166Z,99206.09
2018-10-18T23:46:48.265Z,99210.40
2018-10-18T23:51:52.228Z,99202.92
2018-10-18T23:56:56.255Z,99207.52
